Time;durP1;ratioP1;P1;durP2;ratioP2;P2;SDS_P1;SDS_P2;PMS_P1;PMS_P2;Temp;Humidity;BMP_temperature;BMP_pressure;BME280_temperature;BME280_humidity;BME280_pressure;Samples;Min_cycle;Max_cycle;Signal;HPM_P1;HPM_P2
2024/01/05 00:02:21;;;;;;;8.80;5.80;;;;;;;-1.52;92.82;99288.34;111274;241;40143;-59
2024/01/05 00:05:00;;;;;;;10.80;6.70;;;;;;;-1.51;92.84;99292.50;111210;241;40338;-59
2024/01/05 00:07:37;;;;;;;9.40;6.80;;;;;;;-1.45;92.94;99291.80;111244;241;40316;-58
2024/01/05 00:10:12;;;;;;;8.90;6.00;;;;;;;-1.44;92.69;99291.39;111245;242;40283;-58
2024/01/05 00:12:48;;;;;;;9.70;6.10;;;;;;;-1.47;92.66;99308.08;111242;242;40594;-59
2024/01/05 00:15:24;;;;;;;9.90;6.10;;;;;;;-1.52;92.73;99314.14;111221;241;40001;-56
2024/01/05 00:18:03;;;;;;;6.90;5.40;;;;;;;-1.50;92.75;99322.84;111243;241;39129;-58
2024/01/05 00:20:39;;;;;;;7.30;5.50;;;;;;;-1.50;92.65;99327.58;111202;241;39321;-56
2024/01/05 00:23:14;;;;;;;7.30;5.10;;;;;;;-1.43;92.59;99333.31;111255;242;39862;-56
2024/01/05 00:25:54;;;;;;;7.80;4.90;;;;;;;-1.37;92.67;99338.53;111256;241;39108;-55
2024/01/05 00:28:38;;;;;;;6.20;4.80;;;;;;;-1.37;92.66;99342.09;111209;241;40172;-55
2024/01/05 00:31:22;;;;;;;6.90;4.50;;;;;;;-1.33;92.68;99345.45;111220;242;39305;-56
2024/01/05 00:34:02;;;;;;;6.70;4.50;;;;;;;-1.30;92.51;99350.03;111224;241;40474;-56
2024/01/05 00:36:41;;;;;;;5.90;3.90;;;;;;;-1.37;92.51;99351.77;111293;241;39634;-56
2024/01/05 00:39:20;;;;;;;7.60;5.00;;;;;;;-1.35;92.49;99357.98;111236;241;39142;-56
2024/01/05 00:41:55;;;;;;;6.80;4.90;;;;;;;-1.34;92.44;99366.02;111252;242;39388;-56
2024/01/05 00:44:32;;;;;;;6.20;4.30;;;;;;;-1.36;92.26;99374.66;111322;241;40666;-56
2024/01/05 00:47:10;;;;;;;6.70;4.50;;;;;;;-1.37;92.44;99382.18;111233;241;41163;-56
2024/01/05 00:49:51;;;;;;;7.10;4.90;;;;;;;-1.37;92.44;99384.11;111247;241;41849;-58
2024/01/05 00:52:26;;;;;;;7.20;4.60;;;;;;;-1.38;92.50;99392.38;111237;242;39997;-56
2024/01/05 00:55:06;;;;;;;7.00;4.80;;;;;;;-1.38;92.68;99392.81;111227;242;39522;-60
2024/01/05 00:57:44;;;;;;;6.80;4.60;;;;;;;-1.34;92.79;99395.60;111257;242;38955;-59
2024/01/05 01:00:19;;;;;;;6.50;4.30;;;;;;;-1.26;92.68;99395.60;111258;242;39381;-58
2024/01/05 01:02:52;;;;;;;7.00;4.50;;;;;;;-1.26;92.83;99398.95;111238;241;39199;-59
2024/01/05 01:05:29;;;;;;;6.70;4.30;;;;;;;-1.23;92.74;99397.80;111220;241;39717;-58
2024/01/05 01:08:06;;;;;;;6.40;4.20;;;;;;;-1.21;92.74;99409.66;111214;241;40440;-58
2024/01/05 01:10:44;;;;;;;7.10;4.40;;;;;;;-1.26;92.85;99414.20;111234;241;39583;-56
2024/01/05 01:13:19;;;;;;;7.00;4.80;;;;;;;-1.27;93.03;99416.36;111220;241;39810;-56
2024/01/05 01:15:57;;;;;;;6.70;4.20;;;;;;;-1.31;92.98;99416.34;111242;241;39562;-56
2024/01/05 01:18:41;;;;;;;6.10;4.00;;;;;;;-1.32;92.97;99423.04;111210;242;40520;-56
2024/01/05 01:21:18;;;;;;;6.30;3.90;;;;;;;-1.34;93.04;99423.04;111236;241;39480;-56
2024/01/05 01:23:56;;;;;;;6.00;3.80;;;;;;;-1.40;92.92;99424.31;111167;241;39606;-56
2024/01/05 01:26:35;;;;;;;6.40;4.20;;;;;;;-1.43;92.90;99423.70;111250;241;39662;-59
2024/01/05 01:29:17;;;;;;;5.20;3.70;;;;;;;-1.36;93.01;99430.95;111210;241;40239;-59
2024/01/05 01:31:59;;;;;;;6.60;3.90;;;;;;;-1.40;93.05;99432.91;111263;241;39390;-59
2024/01/05 01:34:42;;;;;;;5.40;3.90;;;;;;;-1.33;92.97;99439.73;111235;241;39259;-59
2024/01/05 01:37:19;;;;;;;5.40;3.30;;;;;;;-1.36;92.82;99437.89;111230;242;39827;-55
2024/01/05 01:39:56;;;;;;;5.50;3.60;;;;;;;-1.37;92.78;99439.01;111251;242;40098;-56
2024/01/05 01:42:31;;;;;;;6.60;3.90;;;;;;;-1.38;92.70;99446.55;111227;241;40379;-56
2024/01/05 01:45:07;;;;;;;6.50;4.20;;;;;;;-1.38;92.74;99453.40;111246;242;40872;-58
2024/01/05 01:47:48;;;;;;;7.10;3.70;;;;;;;-1.39;92.73;99454.42;111250;241;41248;-58
2024/01/05 01:50:24;;;;;;;6.10;3.90;;;;;;;-1.44;92.70;99455.17;111253;242;40177;-56
2024/01/05 01:53:01;;;;;;;6.60;3.70;;;;;;;-1.46;92.54;99456.77;111237;242;39530;-56
2024/01/05 01:55:38;;;;;;;4.60;3.50;;;;;;;-1.44;92.55;99458.54;111232;242;39144;-58
2024/01/05 01:58:13;;;;;;;5.10;3.00;;;;;;;-1.42;92.18;99463.66;111249;242;39561;-59
2024/01/05 02:00:52;;;;;;;5.10;3.30;;;;;;;-1.45;92.18;99458.85;111213;241;40917;-55
2024/01/05 02:03:33;;;;;;;4.80;3.10;;;;;;;-1.49;92.09;99454.76;111240;241;39421;-55
2024/01/05 02:06:13;;;;;;;5.00;3.50;;;;;;;-1.52;92.11;99457.16;111219;241;38997;-55
2024/01/05 02:08:51;;;;;;;5.70;3.60;;;;;;;-1.49;92.17;99455.66;111224;241;39214;-55
2024/01/05 02:11:29;;;;;;;6.60;3.80;;;;;;;-1.49;92.17;99456.05;111220;242;40550;-56
2024/01/05 02:14:10;;;;;;;5.20;3.50;;;;;;;-1.51;92.10;99456.77;111242;241;41270;-56
2024/01/05 02:16:48;;;;;;;5.10;3.50;;;;;;;-1.52;92.02;99455.90;111226;242;40696;-58
2024/01/05 02:19:26;;;;;;;5.40;3.50;;;;;;;-1.57;92.04;99458.81;111250;241;40647;-58
2024/01/05 02:22:06;;;;;;;5.00;3.30;;;;;;;-1.54;92.08;99467.22;111204;241;40363;-55
2024/01/05 02:24:43;;;;;;;4.80;3.20;;;;;;;-1.55;92.04;99475.98;111222;241;39555;-55
2024/01/05 02:27:18;;;;;;;4.90;3.20;;;;;;;-1.51;92.04;99479.52;111226;241;40606;-58
2024/01/05 02:29:59;;;;;;;5.50;3.60;;;;;;;-1.48;92.15;99477.80;111257;242;39984;-56
2024/01/05 02:32:36;;;;;;;6.50;3.80;;;;;;;-1.46;92.04;99484.71;111223;242;39175;-56
2024/01/05 02:35:11;;;;;;;5.20;3.60;;;;;;;-1.46;91.78;99484.13;111222;241;40745;-58
2024/01/05 02:37:49;;;;;;;6.00;3.20;;;;;;;-1.53;91.35;99488.01;111228;241;40815;-59
2024/01/05 02:40:32;;;;;;;4.20;2.80;;;;;;;-1.62;91.09;99491.05;111256;242;39463;-58
2024/01/05 02:43:09;;;;;;;4.40;3.30;;;;;;;-1.68;91.09;99496.85;111180;241;39324;-58
2024/01/05 02:45:43;;;;;;;6.60;3.30;;;;;;;-1.71;90.96;99505.68;111255;242;39371;-55
2024/01/05 02:48:20;;;;;;;6.20;2.80;;;;;;;-1.68;90.85;99505.91;111210;241;39797;-55
2024/01/05 02:50:57;;;;;;;5.50;3.10;;;;;;;-1.65;90.72;99509.86;111282;241;39420;-55
2024/01/05 02:53:32;;;;;;;6.00;3.20;;;;;;;-1.61;90.71;99505.84;111243;241;40302;-56
2024/01/05 02:56:08;;;;;;;4.10;2.60;;;;;;;-1.64;90.61;99508.16;111232;242;39401;-55
2024/01/05 02:58:46;;;;;;;3.70;2.50;;;;;;;-1.68;90.55;99508.75;111248;241;41169;-55
2024/01/05 03:01:26;;;;;;;5.00;2.60;;;;;;;-1.69;90.48;99511.48;111238;242;40933;-58
2024/01/05 03:04:05;;;;;;;5.70;3.20;;;;;;;-1.73;90.37;99511.23;111128;242;39631;-57
2024/01/05 03:06:43;;;;;;;4.70;2.80;;;;;;;-1.77;90.30;99517.25;111189;243;39791;-58
2024/01/05 03:09:20;;;;;;;6.60;3.00;;;;;;;-1.77;90.22;99516.04;111146;243;41003;-58
2024/01/05 03:12:01;;;;;;;3.40;2.30;;;;;;;-1.74;90.28;99523.73;111230;243;39831;-58
2024/01/05 03:14:38;;;;;;;4.40;2.70;;;;;;;-1.79;89.94;99525.38;111236;243;39842;-58
2024/01/05 03:17:16;;;;;;;3.30;2.30;;;;;;;-1.81;89.84;99529.27;111248;243;39850;-55
2024/01/05 03:19:53;;;;;;;4.70;3.00;;;;;;;-1.82;89.69;99528.98;111249;243;39392;-59
2024/01/05 03:22:29;;;;;;;4.30;2.50;;;;;;;-1.80;89.37;99529.72;111267;243;40707;-60
2024/01/05 03:25:07;;;;;;;3.00;2.10;;;;;;;-1.87;89.25;99535.55;111201;243;39233;-55
2024/01/05 03:27:43;;;;;;;4.10;2.40;;;;;;;-1.89;89.08;99540.52;111228;242;40015;-55
2024/01/05 03:30:24;;;;;;;4.40;2.60;;;;;;;-1.91;89.14;99544.73;111223;243;40027;-55
2024/01/05 03:32:59;;;;;;;3.40;2.20;;;;;;;-1.87;89.16;99553.48;111270;243;39860;-56
2024/01/05 03:35:41;;;;;;;4.90;2.10;;;;;;;-1.86;89.19;99556.67;111222;243;39308;-59
2024/01/05 03:38:18;;;;;;;3.80;2.20;;;;;;;-1.86;89.28;99562.98;111225;243;41344;-58
2024/01/05 03:40:59;;;;;;;4.10;2.30;;;;;;;-1.83;89.04;99561.73;111251;243;39192;-55
2024/01/05 03:43:33;;;;;;;3.70;2.00;;;;;;;-1.81;89.21;99565.44;111259;242;39953;-55
2024/01/05 03:46:13;;;;;;;3.20;1.90;;;;;;;-1.81;89.00;99567.00;111309;243;39476;-58
2024/01/05 03:48:48;;;;;;;3.30;1.60;;;;;;;-1.82;88.74;99572.17;111293;243;39948;-59
2024/01/05 03:51:27;;;;;;;2.70;1.40;;;;;;;-1.86;88.53;99581.00;111203;243;39614;-56
2024/01/05 03:54:03;;;;;;;3.50;1.60;;;;;;;-1.88;88.39;99585.82;111255;243;39686;-56
2024/01/05 03:56:47;;;;;;;2.80;1.60;;;;;;;-1.90;88.34;99586.31;111243;243;40653;-56
2024/01/05 03:59:25;;;;;;;4.90;2.20;;;;;;;-1.92;88.24;99582.23;111219;243;39142;-56
2024/01/05 04:02:02;;;;;;;2.90;1.40;;;;;;;-1.92;88.14;99583.11;111195;243;39942;-59
2024/01/05 04:04:42;;;;;;;2.20;1.30;;;;;;;-1.96;88.09;99585.79;111237;243;40663;-59
2024/01/05 04:07:18;;;;;;;2.60;1.30;;;;;;;-1.97;88.07;99591.36;111228;243;40801;-56
2024/01/05 04:09:59;;;;;;;2.80;1.40;;;;;;;-1.98;88.01;99595.98;111213;243;40783;-57
2024/01/05 04:12:36;;;;;;;2.20;1.40;;;;;;;-1.97;87.85;99597.30;111218;243;39716;-55
2024/01/05 04:15:16;;;;;;;2.90;1.70;;;;;;;-2.02;87.72;99598.27;111225;243;40531;-60
2024/01/05 04:17:50;;;;;;;2.80;1.40;;;;;;;-1.97;87.82;99604.03;111241;243;39695;-59
2024/01/05 04:20:30;;;;;;;2.10;1.30;;;;;;;-1.97;87.76;99610.92;111231;242;39484;-59
2024/01/05 04:23:09;;;;;;;4.40;1.60;;;;;;;-1.97;87.75;99613.57;111234;243;40176;-62
2024/01/05 04:25:48;;;;;;;3.30;1.70;;;;;;;-2.01;87.48;99619.69;111244;243;39661;-59
2024/01/05 04:28:25;;;;;;;2.50;1.40;;;;;;;-1.98;87.61;99622.59;111229;242;40443;-58
2024/01/05 04:31:03;;;;;;;3.40;1.70;;;;;;;-1.96;87.87;99624.78;111239;243;39299;-60
2024/01/05 04:33:38;;;;;;;2.60;1.30;;;;;;;-1.95;87.81;99627.83;111269;243;39253;-59
2024/01/05 04:36:15;;;;;;;2.10;1.20;;;;;;;-1.95;87.62;99627.53;111247;243;40656;-56
2024/01/05 04:38:53;;;;;;;2.20;1.40;;;;;;;-1.93;87.67;99634.20;111203;243;40424;-55
2024/01/05 04:41:34;;;;;;;2.60;1.30;;;;;;;-1.91;87.71;99631.23;111235;243;39850;-56
2024/01/05 04:44:14;;;;;;;2.80;1.40;;;;;;;-1.89;87.72;99636.70;111233;243;39489;-56
2024/01/05 04:46:50;;;;;;;3.50;1.80;;;;;;;-1.86;87.72;99638.04;111248;243;39512;-59
2024/01/05 04:49:27;;;;;;;2.80;1.50;;;;;;;-1.86;87.60;99639.78;111221;243;40830;-59
2024/01/05 04:52:04;;;;;;;2.00;1.20;;;;;;;-1.82;87.66;99644.05;111237;243;40420;-59
2024/01/05 04:54:44;;;;;;;2.20;1.30;;;;;;;-1.87;87.53;99643.89;111181;243;38901;-59
2024/01/05 04:57:21;;;;;;;3.30;1.50;;;;;;;-1.87;87.73;99648.36;111196;243;40380;-56
2024/01/05 05:00:03;;;;;;;2.90;1.70;;;;;;;-1.89;87.77;99640.52;111264;243;41608;-56
2024/01/05 05:02:38;;;;;;;3.00;2.10;;;;;;;-1.92;87.94;99646.14;111193;243;39262;-56
2024/01/05 05:05:20;;;;;;;2.90;1.30;;;;;;;-1.94;87.95;99639.72;111223;243;39335;-56
2024/01/05 05:08:00;;;;;;;2.50;1.30;;;;;;;-1.94;87.91;99650.16;111211;243;39085;-56
2024/01/05 05:10:38;;;;;;;2.20;1.30;;;;;;;-1.91;87.98;99644.48;111265;243;41054;-58
2024/01/05 05:13:17;;;;;;;2.30;1.30;;;;;;;-1.87;88.01;99647.15;111224;243;39547;-59
2024/01/05 05:15:57;;;;;;;3.10;1.70;;;;;;;-1.86;87.94;99652.81;111252;243;39279;-58
2024/01/05 05:18:37;;;;;;;3.20;2.00;;;;;;;-1.85;88.00;99656.11;111245;243;39556;-59
2024/01/05 05:21:18;;;;;;;4.30;1.60;;;;;;;-1.86;88.09;99664.98;111232;243;39753;-56
2024/01/05 05:23:59;;;;;;;3.50;1.40;;;;;;;-1.83;88.16;99664.75;111244;243;39251;-56
2024/01/05 05:26:39;;;;;;;3.30;1.50;;;;;;;-1.85;88.34;99672.33;111219;243;41261;-56
2024/01/05 05:29:20;;;;;;;4.20;1.80;;;;;;;-1.86;88.43;99675.73;111212;243;40605;-56
2024/01/05 05:31:57;;;;;;;2.90;1.70;;;;;;;-1.93;87.94;99682.87;111215;243;39764;-59
2024/01/05 05:34:34;;;;;;;3.70;1.40;;;;;;;-1.95;88.08;99682.16;111228;243;39861;-59
2024/01/05 05:37:17;;;;;;;2.80;1.40;;;;;;;-1.93;88.13;99684.48;111220;243;39940;-55
2024/01/05 05:39:59;;;;;;;2.90;1.70;;;;;;;-1.93;88.18;99684.85;111245;243;40268;-56
2024/01/05 05:42:42;;;;;;;2.40;1.40;;;;;;;-1.88;88.36;99685.85;111236;242;39601;-55
2024/01/05 05:45:24;;;;;;;2.70;1.50;;;;;;;-1.85;88.22;99693.21;111264;243;38839;-59
2024/01/05 05:48:02;;;;;;;3.90;1.60;;;;;;;-1.81;88.16;99687.52;111255;243;39163;-61
2024/01/05 05:50:41;;;;;;;2.60;1.60;;;;;;;-1.78;88.02;99688.71;111235;242;39886;-55
2024/01/05 05:53:17;;;;;;;2.60;1.30;;;;;;;-1.79;87.98;99691.08;111227;243;40599;-55
2024/01/05 05:55:57;;;;;;;3.60;1.50;;;;;;;-1.78;87.79;99694.73;110752;243;640910;-58
2024/01/05 05:58:34;;;;;;;2.10;1.30;;;;;;;-1.80;87.84;99700.51;111041;243;39148;-58
2024/01/05 06:01:13;;;;;;;3.20;1.90;;;;;;;-1.81;87.70;99704.47;111215;242;39209;-56
2024/01/05 06:03:50;;;;;;;2.90;1.40;;;;;;;-1.79;87.69;99710.27;111229;242;41211;-56
2024/01/05 06:06:28;;;;;;;3.00;1.60;;;;;;;-1.75;87.56;99714.96;110991;243;39652;-56
2024/01/05 06:09:07;;;;;;;3.90;1.70;;;;;;;-1.74;87.63;99715.02;111227;242;39929;-56
2024/01/05 06:11:46;;;;;;;3.20;1.60;;;;;;;-1.71;87.71;99724.11;111254;243;39944;-59
2024/01/05 06:14:24;;;;;;;2.80;1.50;;;;;;;-1.68;87.81;99724.80;111220;243;41150;-59
2024/01/05 06:17:00;;;;;;;3.30;1.80;;;;;;;-1.69;87.72;99731.70;111256;243;39892;-59
2024/01/05 06:19:38;;;;;;;3.10;1.70;;;;;;;-1.68;87.88;99735.02;111210;243;39600;-59
2024/01/05 06:22:17;;;;;;;4.60;1.80;;;;;;;-1.71;87.72;99733.45;111222;243;40300;-59
2024/01/05 06:24:57;;;;;;;3.30;1.80;;;;;;;-1.73;87.49;99736.10;111216;243;39451;-55
2024/01/05 06:27:37;;;;;;;2.70;1.80;;;;;;;-1.77;87.35;99741.55;111202;243;39165;-55
2024/01/05 06:30:17;;;;;;;4.30;3.10;;;;;;;-1.76;87.34;99740.61;111235;243;39336;-55
2024/01/05 06:32:52;;;;;;;3.20;2.10;;;;;;;-1.74;87.28;99741.34;111236;243;39656;-55
2024/01/05 06:35:31;;;;;;;2.80;1.80;;;;;;;-1.72;87.15;99746.49;111220;243;40420;-59
2024/01/05 06:38:07;;;;;;;2.40;1.60;;;;;;;-1.72;87.12;99749.48;111267;243;40680;-60
2024/01/05 06:40:46;;;;;;;2.90;1.80;;;;;;;-1.71;87.07;99749.18;111207;243;40737;-57
2024/01/05 06:43:24;;;;;;;3.70;1.90;;;;;;;-1.72;86.86;99752.97;111233;243;40086;-56
2024/01/05 06:46:03;;;;;;;4.60;2.10;;;;;;;-1.71;86.80;99754.70;111265;243;38985;-58
2024/01/05 06:48:41;;;;;;;3.60;2.30;;;;;;;-1.72;86.81;99761.10;111192;243;40555;-58
2024/01/05 06:51:23;;;;;;;3.40;2.00;;;;;;;-1.72;86.92;99767.45;111195;243;41138;-55
2024/01/05 06:54:05;;;;;;;4.60;2.20;;;;;;;-1.71;86.89;99772.88;111213;243;39884;-55
2024/01/05 06:56:44;;;;;;;5.50;2.30;;;;;;;-1.69;87.12;99770.21;111252;243;39304;-55
2024/01/05 06:59:20;;;;;;;4.20;2.20;;;;;;;-1.68;87.13;99773.25;111206;243;39462;-55
2024/01/05 07:02:02;;;;;;;4.60;2.20;;;;;;;-1.65;87.17;99774.27;111284;243;40808;-56
2024/01/05 07:04:41;;;;;;;3.80;2.10;;;;;;;-1.59;87.29;99779.80;111179;243;40327;-55
2024/01/05 07:07:24;;;;;;;4.40;2.60;;;;;;;-1.56;87.38;99783.36;111200;243;39903;-58
2024/01/05 07:10:00;;;;;;;3.40;2.00;;;;;;;-1.55;87.18;99786.83;111236;243;39712;-57
2024/01/05 07:12:40;;;;;;;3.60;2.10;;;;;;;-1.56;87.08;99787.61;111025;243;40116;-58
2024/01/05 07:15:15;;;;;;;3.60;2.10;;;;;;;-1.55;87.14;99790.54;111270;243;38940;-55
2024/01/05 07:17:54;;;;;;;4.00;1.80;;;;;;;-1.55;87.08;99789.88;111196;243;40720;-57
2024/01/05 07:20:28;;;;;;;4.30;2.60;;;;;;;-1.57;86.95;99787.56;111276;243;38777;-56
2024/01/05 07:23:05;;;;;;;3.10;1.90;;;;;;;-1.56;86.90;99785.35;111255;242;39441;-56
2024/01/05 07:25:41;;;;;;;3.90;2.00;;;;;;;-1.56;86.81;99781.94;111225;243;39450;-56
2024/01/05 07:28:18;;;;;;;2.70;1.90;;;;;;;-1.54;86.90;99783.93;111251;242;39630;-56
2024/01/05 07:30:55;;;;;;;4.00;1.90;;;;;;;-1.55;86.86;99783.29;111221;243;38872;-56
2024/01/05 07:33:35;;;;;;;3.00;2.10;;;;;;;-1.56;86.75;99780.43;111259;243;39862;-56
2024/01/05 07:36:14;;;;;;;3.30;2.10;;;;;;;-1.52;86.82;99780.07;111250;243;39909;-57
2024/01/05 07:38:51;;;;;;;3.20;1.70;;;;;;;-1.49;86.78;99778.19;111257;243;39757;-55
2024/01/05 07:41:25;;;;;;;3.30;1.80;;;;;;;-1.51;86.62;99783.34;111002;243;40496;-59
2024/01/05 07:44:00;;;;;;;2.80;2.10;;;;;;;-1.53;86.73;99786.11;111274;243;39378;-58
2024/01/05 07:46:43;;;;;;;4.50;2.40;;;;;;;-1.52;86.66;99790.98;111241;243;39231;-59
2024/01/05 07:49:23;;;;;;;4.00;2.10;;;;;;;-1.49;86.56;99791.13;111211;243;40279;-59
2024/01/05 07:52:00;;;;;;;4.40;2.20;;;;;;;-1.47;86.74;99792.88;111234;242;39012;-59
2024/01/05 07:54:34;;;;;;;;;;;;;;;-1.45;86.78;99794.64;111204;243;39731;-59
2024/01/05 07:57:12;;;;;;;3.30;2.00;;;;;;;-1.45;86.87;99794.09;111205;243;39915;-56
2024/01/05 07:59:53;;;;;;;2.50;1.80;;;;;;;-1.40;87.04;99795.33;111238;243;39635;-59
2024/01/05 08:02:52;;;;;;;4.50;1.90;;;;;;;-1.35;87.00;99798.77;111241;243;39711;-59
2024/01/05 08:05:27;;;;;;;4.30;2.40;;;;;;;-1.31;87.04;99802.15;111214;243;40920;-55
2024/01/05 08:08:03;;;;;;;3.60;2.00;;;;;;;-1.27;86.77;99798.41;111221;243;39200;-59
2024/01/05 08:10:39;;;;;;;4.10;2.40;;;;;;;-1.29;86.62;99799.11;111224;243;40032;-55
2024/01/05 08:13:26;;;;;;;4.10;2.60;;;;;;;-1.28;86.53;99808.91;111223;243;39835;-55
2024/01/05 08:15:59;;;;;;;5.10;2.50;;;;;;;-1.27;86.54;99813.27;111222;243;40982;-59
2024/01/05 08:18:39;;;;;;;5.10;2.80;;;;;;;-1.26;86.67;99816.14;111246;243;39697;-59
2024/01/05 08:21:14;;;;;;;9.10;2.80;;;;;;;-1.28;86.63;99816.13;111228;243;39844;-55
2024/01/05 08:23:49;;;;;;;7.70;3.00;;;;;;;-1.31;86.59;99819.02;111214;243;40501;-56
2024/01/05 08:26:24;;;;;;;3.50;2.00;;;;;;;-1.29;86.55;99819.98;111234;243;39220;-57
2024/01/05 08:28:59;;;;;;;2.80;1.90;;;;;;;-1.28;86.46;99829.02;111297;243;39290;-56
2024/01/05 08:31:37;;;;;;;3.00;2.10;;;;;;;-1.25;86.29;99832.00;111277;243;39215;-59
2024/01/05 08:34:13;;;;;;;4.20;2.30;;;;;;;-1.27;86.27;99832.66;111204;243;39441;-59
2024/01/05 08:36:50;;;;;;;4.60;2.90;;;;;;;-1.25;86.21;99836.40;111266;243;39319;-55
2024/01/05 08:39:26;;;;;;;5.00;2.80;;;;;;;-1.23;86.28;99834.27;111249;243;39264;-56
2024/01/05 08:42:05;;;;;;;4.60;2.60;;;;;;;-1.21;86.30;99837.10;111195;243;39811;-59
2024/01/05 08:44:40;;;;;;;5.20;2.90;;;;;;;-1.20;86.31;99837.91;111230;243;39068;-59
2024/01/05 08:47:18;;;;;;;5.40;3.20;;;;;;;-1.18;86.27;99839.85;111255;242;40911;-55
2024/01/05 08:50:07;;;;;;;6.50;3.40;;;;;;;-1.19;86.30;99844.03;111234;242;41249;-60
2024/01/05 08:52:45;;;;;;;7.00;3.50;;;;;;;-1.19;86.44;99847.17;111244;242;40198;-59
2024/01/05 08:55:24;;;;;;;6.90;3.10;;;;;;;-1.19;86.23;99851.29;111287;242;39291;-56
2024/01/05 08:58:02;;;;;;;5.50;3.30;;;;;;;-1.18;86.36;99860.58;111224;242;39500;-60
2024/01/05 09:00:42;;;;;;;4.40;2.70;;;;;;;-1.17;86.25;99861.84;111246;242;40395;-59
2024/01/05 09:03:25;;;;;;;3.40;2.30;;;;;;;-1.18;86.34;99866.52;111257;242;40128;-60
2024/01/05 09:06:03;;;;;;;5.00;2.50;;;;;;;-1.21;86.38;99870.31;111248;242;38783;-57
2024/01/05 09:08:47;;;;;;;3.50;2.00;;;;;;;-1.23;86.41;99867.27;111228;242;39872;-60
2024/01/05 09:11:28;;;;;;;4.40;2.00;;;;;;;-1.21;86.52;99866.02;111270;242;40618;-58
2024/01/05 09:14:10;;;;;;;5.10;2.80;;;;;;;-1.18;86.62;99870.63;111230;242;40529;-59
2024/01/05 09:16:52;;;;;;;5.30;2.70;;;;;;;-1.13;86.65;99875.80;111246;242;38894;-60
2024/01/05 09:19:33;;;;;;;5.80;2.80;;;;;;;-1.07;86.70;99876.61;111240;242;40961;-59
2024/01/05 09:22:11;;;;;;;5.00;2.50;;;;;;;-1.06;86.62;99884.05;111244;242;40279;-58
2024/01/05 09:24:46;;;;;;;5.20;2.70;;;;;;;-1.01;86.57;99885.08;111255;242;40211;-57
2024/01/05 09:27:21;;;;;;;3.90;2.70;;;;;;;-0.94;86.64;99886.23;111243;242;39556;-55
2024/01/05 09:29:57;;;;;;;4.40;2.70;;;;;;;-0.89;86.52;99882.61;111288;242;40289;-59
2024/01/05 09:32:35;;;;;;;3.40;2.60;;;;;;;-0.85;86.40;99879.67;111235;242;39503;-59
2024/01/05 09:35:11;;;;;;;4.00;2.20;;;;;;;-0.82;86.39;99883.09;111255;242;40327;-60
2024/01/05 09:37:48;;;;;;;4.40;2.80;;;;;;;-0.84;85.96;99882.52;111204;242;39819;-60
2024/01/05 09:40:27;;;;;;;4.80;2.10;;;;;;;-0.83;86.01;99882.95;111235;242;39305;-56
2024/01/05 09:43:05;;;;;;;3.30;2.10;;;;;;;-0.80;85.99;99885.77;111222;242;40859;-56
2024/01/05 09:45:42;;;;;;;3.40;1.80;;;;;;;-0.79;85.99;99883.20;111285;242;40557;-60
2024/01/05 09:48:19;;;;;;;6.20;2.60;;;;;;;-0.75;86.15;99881.08;111287;242;40539;-59
2024/01/05 09:51:01;;;;;;;4.60;1.90;;;;;;;-0.64;86.18;99875.17;111264;242;39906;-59
2024/01/05 09:53:36;;;;;;;3.40;2.00;;;;;;;-0.51;86.19;99875.63;111225;242;40658;-59
2024/01/05 09:56:11;;;;;;;4.10;2.80;;;;;;;-0.42;86.14;99861.02;111210;242;40732;-55
2024/01/05 09:58:48;;;;;;;3.50;2.30;;;;;;;-0.39;85.83;99853.36;111234;242;38977;-55
2024/01/05 10:01:30;;;;;;;5.10;2.90;;;;;;;-0.34;85.65;99857.88;111235;242;39615;-60
2024/01/05 10:04:10;;;;;;;3.70;2.10;;;;;;;-0.31;85.32;99865.36;111260;242;40113;-61
2024/01/05 10:06:58;;;;;;;2.70;1.80;;;;;;;-0.33;84.96;99870.32;111254;242;38868;-61
2024/01/05 10:09:49;;;;;;;2.40;1.60;;;;;;;-0.40;84.72;99867.98;111221;242;40322;-60
2024/01/05 10:12:31;;;;;;;2.80;1.40;;;;;;;-0.44;84.24;99873.11;111231;242;39809;-59
2024/01/05 10:15:12;;;;;;;2.90;1.50;;;;;;;-0.50;83.93;99878.41;111196;242;40446;-59
2024/01/05 10:17:51;;;;;;;3.90;1.50;;;;;;;-0.47;83.60;99884.66;111169;242;40795;-59
2024/01/05 10:20:30;;;;;;;3.60;1.50;;;;;;;-0.50;83.28;99894.29;111207;242;39401;-56
2024/01/05 10:23:10;;;;;;;2.60;1.60;;;;;;;-0.51;83.00;99893.02;111257;242;41103;-57
2024/01/05 10:25:47;;;;;;;3.70;1.70;;;;;;;-0.50;82.94;99894.87;111230;242;40148;-60
2024/01/05 10:28:32;;;;;;;4.20;1.80;;;;;;;-0.50;82.64;99900.31;111259;242;39203;-59
2024/01/05 10:31:22;;;;;;;3.60;1.90;;;;;;;-0.45;82.67;99904.25;111253;242;39877;-55
2024/01/05 10:34:01;;;;;;;5.40;2.80;;;;;;;-0.41;82.52;99906.59;111226;242;39292;-59
2024/01/05 10:36:38;;;;;;;7.00;3.30;;;;;;;-0.44;82.28;99910.60;111243;242;41224;-56
2024/01/05 10:39:22;;;;;;;6.20;2.70;;;;;;;-0.43;82.42;99915.13;111257;242;39623;-56
2024/01/05 10:41:56;;;;;;;4.60;1.90;;;;;;;-0.36;82.65;99915.53;111274;242;40697;-59
2024/01/05 10:44:33;;;;;;;4.20;2.30;;;;;;;-0.28;82.62;99918.95;111206;242;40615;-59
2024/01/05 10:47:16;;;;;;;4.40;2.00;;;;;;;-0.27;82.41;99919.22;111256;242;39122;-56
2024/01/05 10:49:54;;;;;;;2.90;1.80;;;;;;;-0.31;82.42;99917.42;111270;242;39374;-59
2024/01/05 10:52:32;;;;;;;2.70;1.50;;;;;;;-0.38;81.81;99915.56;111273;242;40239;-60
2024/01/05 10:55:09;;;;;;;5.10;2.10;;;;;;;-0.39;81.88;99912.64;111250;242;39064;-60
2024/01/05 10:57:45;;;;;;;3.40;1.90;;;;;;;-0.38;81.75;99912.38;111225;242;39157;-59
2024/01/05 11:00:24;;;;;;;4.00;2.00;;;;;;;-0.39;81.64;99915.47;111220;242;40706;-56
2024/01/05 11:03:10;;;;;;;3.20;1.60;;;;;;;-0.33;81.00;99919.73;111227;242;39893;-56
2024/01/05 11:05:49;;;;;;;2.20;1.50;;;;;;;-0.32;80.79;99917.83;111274;242;39586;-56
2024/01/05 11:08:38;;;;;;;3.30;1.80;;;;;;;-0.26;80.99;99915.73;111227;242;39807;-56
2024/01/05 11:11:32;;;;;;;3.70;1.80;;;;;;;-0.22;80.90;99911.89;111239;242;41027;-55
2024/01/05 11:14:32;;;;;;;3.00;1.80;;;;;;;-0.15;80.68;99911.38;111256;242;39227;-55
2024/01/05 11:17:38;;;;;;;2.80;1.60;;;;;;;-0.14;80.60;99908.61;111293;242;41156;-59
2024/01/05 11:20:47;;;;;;;4.20;1.90;;;;;;;-0.06;80.68;99906.48;111325;242;41429;-59
2024/01/05 11:23:26;;;;;;;3.30;1.40;;;;;;;-0.10;80.29;99899.58;111273;242;38968;-59
2024/01/05 11:26:01;;;;;;;2.20;1.40;;;;;;;-0.02;80.35;99904.41;111254;242;40017;-59
2024/01/05 11:28:45;;;;;;;2.60;1.60;;;;;;;0.07;80.46;99907.13;110967;242;42172;-59
2024/01/05 11:31:35;;;;;;;;;;;;;;;0.11;79.82;99908.60;111214;242;41661;-59
2024/01/05 11:34:30;;;;;;;3.10;1.50;;;;;;;0.09;79.94;99908.04;111224;242;39785;-59
2024/01/05 11:37:08;;;;;;;3.90;1.60;;;;;;;0.14;79.77;99913.11;111261;242;39292;-55
2024/01/05 11:39:53;;;;;;;2.70;1.70;;;;;;;0.16;79.45;99922.32;111227;242;40318;-57
2024/01/05 11:42:35;;;;;;;3.30;1.40;;;;;;;0.17;79.69;99925.06;111248;242;39628;-60
2024/01/05 11:45:13;;;;;;;2.80;1.50;;;;;;;0.24;79.67;99923.33;111255;242;39546;-56
2024/01/05 11:47:50;;;;;;;3.90;1.40;;;;;;;0.29;79.80;99921.80;111228;242;41052;-56
2024/01/05 11:50:33;;;;;;;2.20;1.20;;;;;;;0.31;79.14;99920.56;111169;242;39427;-59
2024/01/05 11:53:22;;;;;;;2.20;1.30;;;;;;;0.23;78.70;99913.17;111241;242;39129;-59
2024/01/05 11:55:59;;;;;;;1.70;1.00;;;;;;;0.21;78.53;99915.79;111238;242;38834;-56
2024/01/05 11:58:38;;;;;;;1.50;0.80;;;;;;;0.20;78.21;99913.23;111230;242;39105;-56
2024/01/05 12:01:23;;;;;;;1.40;0.80;;;;;;;0.18;78.18;99915.04;111245;242;39352;-59
2024/01/05 12:03:59;;;;;;;1.80;1.10;;;;;;;0.20;78.34;99920.98;111211;242;39619;-59
2024/01/05 12:06:36;;;;;;;3.10;1.20;;;;;;;0.22;78.28;99926.39;111239;242;38979;-55
2024/01/05 12:09:11;;;;;;;2.00;1.00;;;;;;;0.21;78.26;99928.91;111211;242;40823;-55
2024/01/05 12:11:46;;;;;;;1.90;1.10;;;;;;;0.20;77.97;99925.45;111230;242;39628;-59
2024/01/05 12:14:38;;;;;;;2.80;1.00;;;;;;;0.21;77.55;99926.94;111232;242;39941;-59
2024/01/05 12:17:21;;;;;;;2.80;1.30;;;;;;;0.17;77.33;99925.55;111197;242;39165;-60
2024/01/05 12:20:10;;;;;;;3.00;1.40;;;;;;;0.18;77.41;99925.84;111245;242;39431;-59
2024/01/05 12:22:52;;;;;;;2.40;1.20;;;;;;;0.20;77.60;99930.02;111240;242;40412;-59
2024/01/05 12:25:31;;;;;;;3.40;1.60;;;;;;;0.28;77.81;99929.49;111243;242;40648;-57
2024/01/05 12:28:15;;;;;;;2.70;1.30;;;;;;;0.26;77.61;99932.71;111208;242;40416;-56
2024/01/05 12:30:52;;;;;;;2.50;1.10;;;;;;;0.24;77.17;99923.84;111236;242;39687;-59